createdAt,value
2023-02-06T00:05:02.860Z,49.80
2023-02-06T00:10:07.200Z,15.95
2023-02-06T00:15:11.162Z,18.58
2023-02-06T00:20:16.280Z,85.88
2023-02-06T00:25:20.093Z,36.90
2023-02-06T00:30:23.914Z,31.25
2023-02-06T00:35:29.079Z,19.38
2023-02-06T00:40:32.880Z,17.73
2023-02-06T00:45:36.824Z,14.77
2023-02-06T00:50:42.070Z,26.20
2023-02-06T00:55:45.875Z,17.83
2023-02-06T01:00:49.535Z,22.83
2023-02-06T01:05:55.265Z,23.98
2023-02-06T01:10:58.971Z,30.05
2023-02-06T01:16:03.030Z,73.63
2023-02-06T01:21:11.297Z,29.48
2023-02-06T01:26:16.566Z,33.27
2023-02-06T01:31:27.304Z,21.38
2023-02-06T01:36:32.502Z,21.27
2023-02-06T01:41:36.440Z,25.73
2023-02-06T01:46:41.396Z,50.17
2023-02-06T01:51:47.966Z,17.77
2023-02-06T01:56:56.163Z,21.63
2023-02-06T02:02:00.546Z,20.30
2023-02-06T02:07:18.496Z,24.30
2023-02-06T02:12:22.482Z,20.27
2023-02-06T02:17:36.625Z,21.35
2023-02-06T02:23:02.263Z,69.90
2023-02-06T02:28:41.627Z,22.08
2023-02-06T02:34:28.971Z,18.92
2023-02-06T02:39:46.136Z,15.40
2023-02-06T02:44:56.165Z,17.13
2023-02-06T02:50:01.856Z,17.70
2023-02-06T02:55:18.374Z,16.27
2023-02-06T03:06:32.764Z,17.73
2023-02-06T03:11:44.590Z,29.55
2023-02-06T03:16:51.789Z,17.92
2023-02-06T03:21:55.479Z,18.17
2023-02-06T03:27:04.770Z,17.58
2023-02-06T03:32:13.872Z,21.67
2023-02-06T03:37:17.995Z,19.67
2023-02-06T03:42:24.118Z,19.50
2023-02-06T03:47:29.461Z,17.13
2023-02-06T03:52:39.399Z,13.85
2023-02-06T03:57:48.486Z,15.90
2023-02-06T04:02:54.605Z,16.25
2023-02-06T04:07:58.582Z,19.50
2023-02-06T04:13:03.655Z,19.08
2023-02-06T04:18:07.382Z,16.48
2023-02-06T04:23:11.150Z,21.38
2023-02-06T04:28:16.273Z,26.73
2023-02-06T04:33:20.034Z,24.85
2023-02-06T04:38:23.720Z,21.73
2023-02-06T04:43:28.848Z,24.48
2023-02-06T04:48:32.653Z,29.92
2023-02-06T04:53:36.490Z,22.75
2023-02-06T04:58:42.138Z,21.52
2023-02-06T05:03:46.565Z,21.60
2023-02-06T05:08:50.592Z,22.77
2023-02-06T05:13:55.834Z,40.33
2023-02-06T05:18:59.723Z,39.90
2023-02-06T05:24:03.484Z,35.28
2023-02-06T05:29:08.527Z,32.30
2023-02-06T05:34:12.284Z,35.80
2023-02-06T05:39:16.127Z,36.92
2023-02-06T05:44:21.363Z,39.13
2023-02-06T05:49:25.120Z,40.95
2023-02-06T05:54:28.858Z,36.05
2023-02-06T05:59:34.318Z,39.50
2023-02-06T06:04:38.086Z,32.50
2023-02-06T06:09:41.844Z,32.40
2023-02-06T06:14:46.961Z,26.20
2023-02-06T06:19:50.640Z,26.48
2023-02-06T06:24:54.380Z,25.25
2023-02-06T06:29:59.475Z,25.42
2023-02-06T06:35:03.186Z,25.67
2023-02-06T06:40:07.645Z,27.15
2023-02-06T06:45:12.837Z,28.08
2023-02-06T06:50:16.832Z,38.65
2023-02-06T06:55:20.915Z,42.05
2023-02-06T07:00:26.011Z,27.75
2023-02-06T07:05:29.761Z,25.90
2023-02-06T07:10:33.515Z,37.40
2023-02-06T07:15:38.773Z,41.08
2023-02-06T07:20:42.524Z,59.53
2023-02-06T07:25:46.313Z,29.42
2023-02-06T07:30:51.373Z,27.27
2023-02-06T07:35:55.203Z,33.72
2023-02-06T07:41:02.623Z,37.50
2023-02-06T07:46:08.059Z,36.33
2023-02-06T07:51:11.928Z,29.95
2023-02-06T07:56:17.705Z,29.40
2023-02-06T08:01:23.445Z,29.15
2023-02-06T08:06:27.925Z,29.30
2023-02-06T08:11:31.647Z,30.55
2023-02-06T08:16:36.866Z,24.95
2023-02-06T08:21:40.659Z,23.33
2023-02-06T08:26:44.972Z,20.38
2023-02-06T08:31:50.135Z,23.00
2023-02-06T08:36:53.880Z,21.08
2023-02-06T08:41:57.644Z,19.90
2023-02-06T08:47:09.946Z,28.38
2023-02-06T08:52:14.025Z,185.88
2023-02-06T08:57:17.899Z,21.17
2023-02-06T09:02:23.017Z,25.75
2023-02-06T09:07:26.823Z,19.35
2023-02-06T09:12:30.622Z,20.25
2023-02-06T09:17:35.790Z,15.93
2023-02-06T09:22:39.514Z,13.32
2023-02-06T09:27:46.768Z,100.78
2023-02-06T09:32:52.056Z,14.27
2023-02-06T09:37:55.814Z,18.52
2023-02-06T09:42:59.639Z,32.72
2023-02-06T09:48:17.369Z,86.25
2023-02-06T09:53:28.894Z,13.30
2023-02-06T09:58:43.427Z,17.05
2023-02-06T10:04:00.618Z,16.70
2023-02-06T10:09:10.239Z,14.73
2023-02-06T10:14:22.439Z,11.40
2023-02-06T10:19:41.256Z,8.18
2023-02-06T10:24:53.826Z,7.97
2023-02-06T10:29:57.591Z,11.80
2023-02-06T10:35:37.341Z,16.42
2023-02-06T10:40:50.636Z,18.48
2023-02-06T10:46:01.884Z,15.50
2023-02-06T10:51:16.261Z,15.40
2023-02-06T10:56:25.095Z,14.93
2023-02-06T11:01:33.853Z,16.40
2023-02-06T11:06:42.557Z,14.43
2023-02-06T11:11:48.576Z,16.85
2023-02-06T11:16:52.576Z,17.75
2023-02-06T11:22:10.537Z,22.17
2023-02-06T11:27:18.477Z,22.02
2023-02-06T11:32:36.074Z,18.35
2023-02-06T11:37:42.843Z,16.35
2023-02-06T11:42:46.934Z,20.00
2023-02-06T11:47:50.879Z,10.35
2023-02-06T11:53:01.993Z,7.68
2023-02-06T11:58:20.494Z,8.15
2023-02-06T12:03:30.783Z,10.00
2023-02-06T12:08:45.407Z,11.07
2023-02-06T12:13:53.649Z,12.60
2023-02-06T12:18:59.212Z,12.70
2023-02-06T12:24:16.220Z,13.88
2023-02-06T12:29:24.361Z,17.10
2023-02-06T12:34:32.148Z,14.38
2023-02-06T12:39:38.148Z,24.80
2023-02-06T12:44:48.160Z,33.63
2023-02-06T12:49:58.715Z,79.35
2023-02-06T12:55:15.931Z,42.83
2023-02-06T13:00:45.062Z,33.67
2023-02-06T13:05:51.952Z,48.85
2023-02-06T13:11:05.724Z,36.03
2023-02-06T13:16:10.747Z,104.45
2023-02-06T13:21:17.316Z,28.55
2023-02-06T13:27:00.716Z,43.25
2023-02-06T13:32:41.145Z,88.40
2023-02-06T13:37:48.181Z,27.60
2023-02-06T13:42:57.370Z,24.38
2023-02-06T13:48:46.794Z,36.25
2023-02-06T13:54:19.632Z,22.75
2023-02-06T13:59:28.944Z,26.15
2023-02-06T14:04:33.648Z,17.55
2023-02-06T14:10:18.954Z,37.92
2023-02-06T14:15:34.550Z,20.48
2023-02-06T14:20:48.552Z,39.92
2023-02-06T14:26:06.537Z,14.90
2023-02-06T14:31:22.394Z,20.67
2023-02-06T14:36:56.901Z,12.40
2023-02-06T14:42:00.993Z,32.30
2023-02-06T14:47:06.252Z,13.65
2023-02-06T14:52:19.755Z,15.00
2023-02-06T14:57:25.731Z,38.60
2023-02-06T15:02:34.856Z,11.93
2023-02-06T15:12:51.963Z,16.80
2023-02-06T15:18:04.916Z,13.15
2023-02-06T15:23:18.227Z,12.60
2023-02-06T15:28:26.613Z,12.55
2023-02-06T15:33:33.899Z,16.83
2023-02-06T15:38:38.513Z,16.05
2023-02-06T15:43:44.366Z,16.23
2023-02-06T15:48:54.037Z,13.93
2023-02-06T15:54:08.508Z,14.93
2023-02-06T15:59:20.569Z,10.95
2023-02-06T16:04:30.178Z,19.38
2023-02-06T16:09:40.275Z,29.35
2023-02-06T16:14:55.368Z,31.85
2023-02-06T16:20:02.864Z,19.15
2023-02-06T16:25:22.722Z,17.58
2023-02-06T16:30:29.421Z,18.55
2023-02-06T16:35:34.567Z,16.60
2023-02-06T16:40:38.544Z,14.38
2023-02-06T16:45:42.440Z,15.02
2023-02-06T16:50:49.539Z,16.27
2023-02-06T16:55:53.507Z,24.50
2023-02-06T17:00:57.240Z,19.15
2023-02-06T17:06:02.421Z,15.65
2023-02-06T17:11:06.273Z,16.08
2023-02-06T17:16:16.208Z,22.05
2023-02-06T17:21:23.794Z,64.05
2023-02-06T17:26:27.616Z,238.00
2023-02-06T17:31:31.365Z,128.63
2023-02-06T17:36:39.736Z,42.60
2023-02-06T17:41:43.728Z,33.75
2023-02-06T17:46:49.096Z,26.40
2023-02-06T17:51:54.722Z,40.17
2023-02-06T17:56:58.554Z,31.67
2023-02-06T18:02:02.481Z,29.05
2023-02-06T18:07:08.357Z,25.52
2023-02-06T18:12:12.126Z,35.13
2023-02-06T18:17:16.009Z,29.92
2023-02-06T18:22:22.889Z,20.38
2023-02-06T18:27:26.615Z,23.88
2023-02-06T18:32:30.542Z,23.25
2023-02-06T18:37:35.892Z,22.23
2023-02-06T18:42:55.029Z,22.98
2023-02-06T18:47:59.096Z,24.85
2023-02-06T18:53:04.379Z,26.05
2023-02-06T18:58:08.357Z,24.05
2023-02-06T19:03:12.271Z,26.48
2023-02-06T19:08:17.767Z,32.67
2023-02-06T19:13:21.772Z,36.13
2023-02-06T19:18:37.699Z,29.05
2023-02-06T19:23:44.784Z,53.22
2023-02-06T19:28:48.863Z,56.03
2023-02-06T19:33:54.115Z,89.03
2023-02-06T19:39:02.940Z,40.67
2023-02-06T19:49:28.724Z,28.90
2023-02-06T19:54:32.716Z,29.58
2023-02-06T19:59:36.725Z,33.10
2023-02-06T20:04:42.532Z,39.45
2023-02-06T20:09:46.737Z,45.97
2023-02-06T20:14:50.669Z,38.05
2023-02-06T20:19:55.741Z,71.82
2023-02-06T20:24:59.444Z,74.68
2023-02-06T20:30:03.689Z,69.03
2023-02-06T20:35:09.710Z,71.07
2023-02-06T20:40:13.479Z,72.20
2023-02-06T20:45:17.519Z,76.75
2023-02-06T20:50:22.883Z,86.40
2023-02-06T20:55:27.247Z,85.18
2023-02-06T21:00:31.461Z,95.38
2023-02-06T21:05:36.800Z,92.15
2023-02-06T21:10:40.517Z,85.60
2023-02-06T21:15:44.439Z,88.50
2023-02-06T21:20:50.685Z,90.60
2023-02-06T21:25:55.847Z,86.85
2023-02-06T21:31:05.183Z,86.25
2023-02-06T21:36:10.788Z,89.60
2023-02-06T21:41:16.772Z,91.38
2023-02-06T21:46:20.807Z,105.03
2023-02-06T21:51:26.542Z,101.53
2023-02-06T21:56:30.832Z,131.07
2023-02-06T22:01:34.856Z,100.07
2023-02-06T22:06:40.332Z,91.10
2023-02-06T22:11:44.184Z,94.22
2023-02-06T22:16:47.986Z,114.18
2023-02-06T22:21:53.506Z,286.10
2023-02-06T22:26:57.296Z,125.38
2023-02-06T22:32:04.499Z,100.35
2023-02-06T22:37:09.881Z,167.95
2023-02-06T22:42:13.656Z,102.97
2023-02-06T22:47:17.989Z,106.47
2023-02-06T22:52:40.630Z,103.47
2023-02-06T22:57:44.480Z,96.93
2023-02-06T23:02:48.136Z,92.38
2023-02-06T23:07:53.288Z,97.20
2023-02-06T23:12:57.103Z,100.32
2023-02-06T23:18:00.826Z,109.05
2023-02-06T23:23:06.149Z,119.47
2023-02-06T23:28:09.799Z,130.65
2023-02-06T23:33:13.766Z,123.28
2023-02-06T23:38:19.004Z,117.20
2023-02-06T23:43:22.714Z,127.00
2023-02-06T23:48:26.362Z,128.60
2023-02-06T23:53:31.804Z,129.43
2023-02-06T23:58:35.456Z,140.45
